• Join FlightAware (Why Join?)
  • Login
  • US Flag 
01:51PM EDT


 

Airport Tracker/Info


-or-


 

Live Flight TrackerFlight Track Log ✈ N75AW ✈ 03-Jun-2013 ✈ KAPF - KGNV

Flight Track Log - Related Links

Times and Time Zones

All times are in EDT time to prevent confusion due to time zone crossing. See the N75AW flight status page for this flight to view local times or setup timezone preferences in your user account.

Time Position Orientation Groundspeed Altitude Reporting Facility
EDT Latitude Longitude Course Direction KTS MPH feet Rate Location/Type
08:14AM 26.1694 -81.6989 354° North 187 215 3,800  Level Miami Center
08:15AM 26.2194 -81.7033 355° North 195 224 5,700 1,920 Climbing Miami Center
08:16AM 26.2647 -81.7192 343° North 192 221 7,700 1,860 Climbing Miami Center
08:17AM 26.3189 -81.7258 354° North 185 213 9,500 1,800 Climbing Miami Center
08:18AM 26.4664 -81.8055 354° North  Level FlightAware Approximate
08:18AM 26.3728 -81.7350 351° North 180 207 11,400  Level Miami Center
08:19AM 26.5298 -81.8126 354° North  Level FlightAware Approximate
08:19AM 26.4267 -81.7467 349° North 180 207 13,200  Level Miami Center
08:20AM 26.4683 -81.7531 352° North 185 213 14,700 1,740 Climbing Miami Center
08:21AM 26.5306 -81.7647 350° North 191 220 16,700 1,740 Climbing Miami Center
08:22AM 26.5864 -81.7764 349° North 191 220 18,200 720 Climbing Miami Center
08:23AM 26.6550 -81.7839 354° North 221 254 18,200  Level Miami Center
08:24AM 26.7319 -81.7964 352° North 254 292 18,200  Level Miami Center
08:25AM 26.8128 -81.8092 352° North 278 320 18,200  Level Miami Center
08:26AM 26.8917 -81.8219 352° North 284 327 18,200  Level Miami Center
08:27AM 26.9706 -81.8392 349° North 289 333 18,200 -120 Level Miami Center
08:28AM 27.0519 -81.8358 North 289 333 18,000 -120 Descending Miami Center
08:29AM 27.1322 -81.8089 17° North 289 333 18,000  Level Miami Center
08:30AM 27.2103 -81.7842 16° North 289 333 18,000  Level Miami Center
08:31AM 27.2914 -81.7922 355° North 289 333 18,000  Level Miami Center
08:32AM 27.3678 -81.8211 341° North 284 327 18,000  Level Miami Center
08:33AM 27.4461 -81.8458 344° North 284 327 18,000  Level Miami Center
08:34AM 27.5247 -81.8678 346° North 284 327 18,000  Level Miami Center
08:35AM 27.6114 -81.8928 346° North 284 327 18,000  Level Miami Center
08:36AM 27.6878 -81.9172 344° North 284 327 18,000  Level Miami Center
08:38AM 27.8775 -81.9839 343° North 286 329 18,000  Level Jacksonville Center
08:39AM 27.9528 -82.0092 343° North 286 329 18,000  Level Jacksonville Center
08:40AM 28.0303 -82.0250 350° North 286 329 18,000  Level Jacksonville Center
08:41AM 28.1117 -82.0361 353° North 286 329 18,000  Level Jacksonville Center
08:42AM 28.1911 -82.0494 352° North 286 329 18,000 -360 Level Jacksonville Center
08:43AM 28.2744 -82.0606 353° North 286 329 17,400 -900 Descending Jacksonville Center
08:44AM 28.3581 -82.0764 351° North 298 343 16,300 -1,080 Descending Jacksonville Center
08:45AM 28.4436 -82.0875 353° North 303 349 15,300 -960 Descending Jacksonville Center
08:46AM 28.5272 -82.0986 353° North 303 349 14,400 -1,080 Descending Jacksonville Center
08:47AM 28.6067 -82.1289 342° North 297 342 13,200 -1,260 Descending Jacksonville Center
08:48AM 28.6842 -82.1589 341° North 297 342 11,900 -1,380 Descending Jacksonville Center
08:48AM 28.7175 -82.1706 343° North 302 348 11,300 -960 Descending Jacksonville Center
08:49AM 28.7678 -82.1725 358° North 297 342 11,000 -300 Descending Jacksonville Center
08:50AM 28.8053 -82.1794 351° North 288 331 11,000  Level Jacksonville Center
08:50AM 28.8428 -82.1792 360° North 292 336 11,000  Level Jacksonville Center
08:51AM 28.8972 -82.1883 352° North 262 302 11,000 -240 Level Jacksonville Center
08:51AM 28.9181 -82.1881 North 273 314 10,800 -1,320 Descending Jacksonville Center
08:52AM 28.9703 -82.1994 349° North 269 310 9,700 -1,620 Descending Jacksonville Center
08:52AM 28.9933 -82.1994 360° North 268 308 9,200 -1,860 Descending Jacksonville Center
08:53AM 29.0456 -82.2039 356° North 295 339 8,000 -1,740 Descending Jacksonville Center
08:53AM 29.0747 -82.2083 352° North 281 323 7,500 -1,500 Descending Jacksonville Center
08:54AM 29.1247 -82.2150 353° North 292 336 6,500 -1,500 Descending Jacksonville Center
08:54AM 29.1542 -82.2150 360° North 281 323 6,000 -1,380 Descending Jacksonville Center
08:55AM 29.2064 -82.2122 North 264 304 5,000 -1,440 Descending Jacksonville Center
08:55AM 29.2250 -82.2097 North 273 314 4,600 -1,020 Descending Jacksonville Center
08:56AM 29.2833 -82.2022 North 259 298 4,000 -600 Descending Jacksonville Center
08:56AM 29.2958 -82.1997 10° North 263 303 4,000  Level Jacksonville Center
08:57AM 29.3461 -82.1969 North 228 262 4,000  Level Jacksonville Center
08:58AM 29.4086 -82.1894 North 217 250 4,000 -60 Level Jacksonville Center
08:59AM 29.4628 -82.1842 North 220 253 3,900 -780 Descending Jacksonville Center
09:00AM 29.5381 -82.1811 North 229 264 2,500 -900 Descending Jacksonville Center
09:01AM 29.5964 -82.1714 North 220 253 2,000 -300 Descending Jacksonville Center
09:02AM 29.6381 -82.1397 33° Northeast 162 186 2,000 -180 Level Jacksonville Center
09:03AM 29.6672 -82.1636 325° Northwest 149 171 1,700 -600 Descending Jacksonville Center
09:04AM 29.6758 -82.2114 282° West 150 173 900 -840 Descending Jacksonville Center
09:06AM 29.6833 -82.2667 350° North  Level FlightAware Approximate
09:13AM 29.6901 -82.2718 350° North  Level Estimated